createdAt,value
2019-03-25T00:00:08.748Z,38.00
2019-03-25T00:00:48.913Z,37.67
2019-03-25T00:01:25.299Z,37.55
2019-03-25T00:01:59.813Z,36.60
2019-03-25T00:02:36.235Z,35.88
2019-03-25T00:03:10.860Z,39.18
2019-03-25T00:03:45.505Z,35.92
2019-03-25T00:04:20.021Z,38.08
2019-03-25T00:04:54.598Z,37.03
2019-03-25T00:05:29.150Z,39.53
2019-03-25T00:06:04.333Z,37.30
2019-03-25T00:06:39.122Z,39.10
2019-03-25T00:07:13.887Z,37.60
2019-03-25T00:07:48.467Z,38.80
2019-03-25T00:08:23.212Z,37.90
2019-03-25T00:09:04.779Z,38.15
2019-03-25T00:09:33.924Z,39.75
2019-03-25T00:10:08.682Z,38.83
2019-03-25T00:10:43.184Z,41.73
2019-03-25T00:11:17.810Z,37.93
2019-03-25T00:11:52.337Z,40.20
2019-03-25T00:12:26.908Z,35.13
2019-03-25T00:13:01.418Z,38.30
2019-03-25T00:13:35.942Z,37.15
2019-03-25T00:14:10.521Z,37.67
2019-03-25T00:14:45.127Z,39.10
2019-03-25T00:15:19.638Z,36.35
2019-03-25T00:15:56.405Z,40.38
2019-03-25T00:16:30.520Z,38.45
2019-03-25T00:17:05.128Z,38.83
2019-03-25T00:17:39.641Z,38.80
2019-03-25T00:18:14.226Z,37.30
2019-03-25T00:18:48.780Z,40.88
2019-03-25T00:19:23.350Z,37.67
2019-03-25T00:19:57.860Z,39.65
2019-03-25T00:20:32.361Z,36.80
2019-03-25T00:21:06.878Z,38.85
2019-03-25T00:21:41.385Z,38.30
2019-03-25T00:22:15.894Z,39.35
2019-03-25T00:22:50.462Z,38.98
2019-03-25T00:23:25.032Z,38.17
2019-03-25T00:23:59.644Z,36.75
2019-03-25T00:24:38.598Z,38.75
2019-03-25T00:25:10.368Z,38.78
2019-03-25T00:25:44.865Z,38.15
2019-03-25T00:26:19.710Z,37.88
2019-03-25T00:26:54.243Z,40.35
2019-03-25T00:27:28.761Z,39.05
2019-03-25T00:28:03.348Z,39.70
2019-03-25T00:28:37.965Z,40.05
2019-03-25T00:29:12.548Z,39.58
2019-03-25T00:29:47.142Z,39.00
2019-03-25T00:30:21.727Z,38.58
2019-03-25T00:30:56.236Z,38.38
2019-03-25T00:31:30.832Z,37.13
2019-03-25T00:32:05.332Z,37.95
2019-03-25T00:32:39.839Z,38.75
2019-03-25T00:33:14.353Z,38.73
2019-03-25T00:33:48.866Z,39.42
2019-03-25T00:34:23.502Z,37.17
2019-03-25T00:34:58.008Z,39.95
2019-03-25T00:35:32.517Z,41.00
2019-03-25T00:36:07.046Z,39.67
2019-03-25T00:36:41.614Z,39.38
2019-03-25T00:37:16.132Z,39.25
2019-03-25T00:37:51.022Z,37.90
2019-03-25T00:38:25.550Z,40.98
2019-03-25T00:39:00.442Z,39.70
2019-03-25T00:39:34.953Z,41.55
2019-03-25T00:40:09.648Z,39.67
2019-03-25T00:40:44.161Z,38.05
2019-03-25T00:41:18.664Z,39.10
2019-03-25T00:41:53.189Z,39.15
2019-03-25T00:42:27.705Z,38.42
2019-03-25T00:43:02.264Z,39.70
2019-03-25T00:43:37.038Z,39.58
2019-03-25T00:44:11.556Z,37.55
2019-03-25T00:44:46.067Z,38.23
2019-03-25T00:45:20.576Z,39.85
2019-03-25T00:45:55.136Z,37.63
2019-03-25T00:46:29.671Z,36.53
2019-03-25T00:47:04.231Z,37.25
2019-03-25T00:47:38.770Z,40.30
2019-03-25T00:48:13.324Z,38.70
2019-03-25T00:48:47.833Z,37.48
2019-03-25T00:49:22.360Z,38.98
2019-03-25T00:49:56.852Z,39.18
2019-03-25T00:50:31.365Z,38.65
2019-03-25T00:51:05.869Z,38.48
2019-03-25T00:51:40.412Z,36.65
2019-03-25T00:52:14.909Z,36.83
2019-03-25T00:52:49.434Z,38.05
2019-03-25T00:53:23.932Z,37.78
2019-03-25T00:53:58.449Z,36.53
2019-03-25T00:54:32.957Z,36.30
2019-03-25T00:55:07.899Z,37.55
2019-03-25T00:55:42.409Z,39.55
2019-03-25T00:56:16.910Z,38.30
2019-03-25T00:56:51.674Z,39.40
2019-03-25T00:57:26.211Z,37.88
2019-03-25T00:58:00.719Z,38.65
2019-03-25T00:58:35.408Z,37.38
2019-03-25T00:59:10.001Z,38.60
2019-03-25T00:59:44.573Z,38.30
2019-03-25T01:00:19.464Z,37.45
2019-03-25T01:00:53.969Z,40.83
2019-03-25T01:01:28.510Z,36.75
2019-03-25T01:02:03.107Z,34.60
2019-03-25T01:02:37.689Z,37.13
2019-03-25T01:03:12.297Z,36.38
2019-03-25T01:03:46.813Z,36.45
2019-03-25T01:04:21.356Z,37.35
2019-03-25T01:04:55.863Z,37.42
2019-03-25T01:05:30.390Z,36.05
2019-03-25T01:06:05.067Z,36.30
2019-03-25T01:06:39.572Z,37.10
2019-03-25T01:07:14.159Z,38.13
2019-03-25T01:07:48.798Z,36.55
2019-03-25T01:08:23.308Z,37.35
2019-03-25T01:08:57.849Z,38.95
2019-03-25T01:09:32.351Z,41.00
2019-03-25T01:10:10.080Z,35.90
2019-03-25T01:10:44.591Z,37.23
2019-03-25T01:11:19.164Z,36.68
2019-03-25T01:11:53.684Z,36.60
2019-03-25T01:12:28.260Z,38.60
2019-03-25T01:13:02.773Z,37.35
2019-03-25T01:13:37.354Z,36.15
2019-03-25T01:14:11.938Z,37.98
2019-03-25T01:14:46.490Z,36.05
2019-03-25T01:15:20.993Z,40.15
2019-03-25T01:15:55.512Z,36.08
2019-03-25T01:16:30.018Z,37.55
2019-03-25T01:17:04.542Z,38.00
2019-03-25T01:17:39.122Z,38.75
2019-03-25T01:18:17.070Z,35.92
2019-03-25T01:18:49.894Z,38.90
2019-03-25T01:19:24.462Z,38.33
2019-03-25T01:19:59.021Z,37.53
2019-03-25T01:20:33.639Z,37.05
2019-03-25T01:21:08.188Z,37.00
2019-03-25T01:21:42.714Z,38.78
2019-03-25T01:22:17.226Z,35.92
2019-03-25T01:22:51.852Z,37.05
2019-03-25T01:23:26.354Z,38.98
2019-03-25T01:24:00.916Z,35.68
2019-03-25T01:24:35.416Z,36.58
2019-03-25T01:25:10.062Z,35.80
2019-03-25T01:25:44.578Z,36.55
2019-03-25T01:26:19.421Z,35.28
2019-03-25T01:26:53.941Z,38.92
2019-03-25T01:27:28.592Z,38.10
2019-03-25T01:28:03.173Z,34.43
2019-03-25T01:28:37.682Z,36.85
2019-03-25T01:29:12.255Z,36.28
2019-03-25T01:29:46.835Z,37.98
2019-03-25T01:30:21.347Z,38.20
2019-03-25T01:30:55.857Z,37.38
2019-03-25T01:31:30.397Z,34.60
2019-03-25T01:32:05.068Z,34.98
2019-03-25T01:32:39.631Z,34.65
2019-03-25T01:33:14.146Z,37.20
2019-03-25T01:33:48.667Z,36.45
2019-03-25T01:34:23.244Z,35.68
2019-03-25T01:34:57.752Z,36.00
2019-03-25T01:35:32.335Z,36.30
2019-03-25T01:36:06.848Z,36.08
2019-03-25T01:36:41.357Z,37.90
2019-03-25T01:37:15.868Z,37.53
2019-03-25T01:37:50.403Z,38.55
2019-03-25T01:38:24.993Z,38.30
2019-03-25T01:38:59.855Z,39.20
2019-03-25T01:39:34.365Z,35.78
2019-03-25T01:40:09.110Z,38.73
2019-03-25T01:40:43.625Z,38.63
2019-03-25T01:41:18.409Z,38.55
2019-03-25T01:41:52.985Z,36.60
2019-03-25T01:42:27.489Z,37.78
2019-03-25T01:43:02.026Z,38.05
2019-03-25T01:43:36.701Z,35.80
2019-03-25T01:44:11.208Z,35.38
2019-03-25T01:44:45.796Z,38.83
2019-03-25T01:45:20.304Z,37.88
2019-03-25T01:45:54.916Z,39.35
2019-03-25T01:46:29.424Z,36.55
2019-03-25T01:47:03.938Z,38.35
2019-03-25T01:47:38.546Z,36.80
2019-03-25T01:48:13.054Z,38.48
2019-03-25T01:48:47.561Z,36.80
2019-03-25T01:49:22.119Z,37.93
2019-03-25T01:49:56.795Z,39.70
2019-03-25T01:50:31.297Z,38.83
2019-03-25T01:51:05.910Z,36.28
2019-03-25T01:51:40.489Z,37.05
2019-03-25T01:52:15.004Z,36.98
2019-03-25T01:52:49.536Z,36.68
2019-03-25T01:53:24.040Z,38.33
2019-03-25T01:53:58.650Z,35.83
2019-03-25T01:54:33.157Z,38.23
2019-03-25T01:55:13.493Z,41.42
2019-03-25T01:55:43.959Z,37.33
2019-03-25T01:56:18.461Z,38.78
2019-03-25T01:56:52.965Z,36.30
2019-03-25T01:57:27.483Z,36.93
2019-03-25T01:58:01.980Z,38.58
2019-03-25T01:58:36.472Z,37.95
2019-03-25T01:59:10.988Z,37.63
2019-03-25T01:59:45.648Z,36.98
2019-03-25T02:00:20.154Z,36.63
2019-03-25T02:00:54.856Z,39.35
2019-03-25T02:01:30.213Z,38.33
2019-03-25T02:02:04.718Z,39.30
2019-03-25T02:02:39.217Z,37.05
2019-03-25T02:03:13.726Z,37.50
2019-03-25T02:03:48.562Z,38.28
2019-03-25T02:04:23.071Z,38.58
2019-03-25T02:04:57.664Z,37.83
2019-03-25T02:05:32.229Z,36.23
2019-03-25T02:06:06.740Z,38.92
2019-03-25T02:06:41.273Z,37.55
2019-03-25T02:07:15.853Z,39.40
2019-03-25T02:07:50.399Z,38.20
2019-03-25T02:08:24.973Z,39.05
2019-03-25T02:08:59.558Z,38.00
2019-03-25T02:09:34.092Z,37.23
2019-03-25T02:10:10.248Z,38.55
2019-03-25T02:10:44.819Z,39.88
2019-03-25T02:11:19.335Z,36.95
2019-03-25T02:11:53.856Z,36.55
2019-03-25T02:12:28.433Z,37.95
2019-03-25T02:13:02.937Z,40.28
2019-03-25T02:13:37.441Z,39.67
2019-03-25T02:14:11.944Z,39.08
2019-03-25T02:14:46.463Z,38.67
2019-03-25T02:15:21.029Z,40.12
2019-03-25T02:15:55.528Z,37.78
2019-03-25T02:16:30.043Z,37.23
2019-03-25T02:17:04.610Z,39.33
2019-03-25T02:17:39.160Z,40.65
2019-03-25T02:18:13.669Z,38.98
2019-03-25T02:18:48.255Z,37.48
2019-03-25T02:19:22.897Z,40.90
2019-03-25T02:19:57.408Z,38.25
2019-03-25T02:20:31.941Z,40.23
2019-03-25T02:21:06.530Z,38.23
2019-03-25T02:21:41.037Z,39.27
2019-03-25T02:22:15.549Z,40.15
2019-03-25T02:22:50.242Z,39.03
2019-03-25T02:23:25.194Z,39.65
2019-03-25T02:23:59.868Z,37.03
2019-03-25T02:24:34.402Z,37.85
2019-03-25T02:25:09.017Z,41.05
2019-03-25T02:25:43.524Z,38.92
2019-03-25T02:26:18.027Z,38.60
2019-03-25T02:26:52.524Z,42.27
2019-03-25T02:27:27.050Z,39.40
2019-03-25T02:28:01.694Z,36.80
2019-03-25T02:28:55.588Z,37.13
2019-03-25T02:29:30.140Z,37.35
2019-03-25T02:30:08.319Z,39.23
2019-03-25T02:30:42.853Z,36.17
2019-03-25T02:31:17.356Z,37.13
2019-03-25T02:31:51.849Z,39.03
2019-03-25T02:32:26.361Z,39.10
2019-03-25T02:33:00.877Z,38.08
2019-03-25T02:33:35.363Z,40.80
2019-03-25T02:34:09.882Z,40.50
2019-03-25T02:34:44.654Z,38.98
2019-03-25T02:35:19.234Z,41.33
2019-03-25T02:35:53.736Z,40.52
2019-03-25T02:36:28.240Z,39.78
2019-03-25T02:37:02.876Z,41.73
2019-03-25T02:37:37.602Z,40.10
2019-03-25T02:38:12.243Z,40.10
2019-03-25T02:38:46.955Z,40.17
2019-03-25T02:39:21.490Z,38.33
2019-03-25T02:39:56.146Z,38.75
2019-03-25T02:40:30.736Z,39.63
2019-03-25T02:41:05.295Z,43.13
2019-03-25T02:41:39.805Z,40.43
2019-03-25T02:42:14.464Z,38.92
2019-03-25T02:42:49.056Z,37.70
2019-03-25T02:43:23.626Z,41.02
2019-03-25T02:43:58.136Z,41.60
2019-03-25T02:44:32.700Z,38.33
2019-03-25T02:45:07.847Z,40.23
2019-03-25T02:45:42.441Z,41.80
2019-03-25T02:46:17.234Z,38.75
2019-03-25T02:46:51.805Z,40.85
2019-03-25T02:47:26.296Z,40.90
2019-03-25T02:48:00.802Z,43.30
2019-03-25T02:48:35.390Z,39.10
2019-03-25T02:49:09.997Z,41.60
2019-03-25T02:49:45.463Z,42.03
2019-03-25T02:50:20.147Z,41.77
2019-03-25T02:50:54.964Z,40.05
2019-03-25T02:51:29.481Z,39.60
2019-03-25T02:52:03.981Z,40.83
2019-03-25T02:52:38.473Z,39.70
2019-03-25T02:53:13.003Z,43.80
2019-03-25T02:53:47.586Z,40.73
2019-03-25T02:54:22.088Z,42.73
2019-03-25T02:54:56.650Z,42.88
2019-03-25T02:55:41.475Z,41.50
2019-03-25T02:56:07.467Z,39.38
2019-03-25T02:56:41.982Z,40.10
2019-03-25T02:57:16.555Z,41.20
2019-03-25T02:57:51.053Z,40.28
2019-03-25T02:58:25.558Z,41.05
2019-03-25T02:59:00.422Z,43.55
2019-03-25T02:59:34.921Z,41.60
2019-03-25T03:00:11.422Z,42.10
2019-03-25T03:00:45.980Z,39.03
2019-03-25T03:01:20.483Z,40.15
2019-03-25T03:01:55.064Z,42.00
2019-03-25T03:02:29.669Z,39.85
2019-03-25T03:03:05.222Z,41.90
2019-03-25T03:03:39.778Z,41.75
2019-03-25T03:04:14.296Z,40.60
2019-03-25T03:04:48.938Z,40.28
2019-03-25T03:05:23.502Z,42.80
2019-03-25T03:05:58.004Z,39.55
2019-03-25T03:06:32.539Z,42.45
2019-03-25T03:07:07.110Z,41.48
2019-03-25T03:07:41.603Z,40.55
2019-03-25T03:08:16.136Z,40.92
2019-03-25T03:08:50.653Z,39.98
2019-03-25T03:09:25.249Z,39.58
2019-03-25T03:09:59.807Z,40.98
2019-03-25T03:10:34.317Z,39.70
2019-03-25T03:11:09.237Z,39.88
2019-03-25T03:11:43.745Z,43.52
2019-03-25T03:12:18.598Z,42.10
2019-03-25T03:12:53.103Z,39.40
2019-03-25T03:13:27.709Z,42.55
2019-03-25T03:14:02.311Z,42.13
2019-03-25T03:14:36.878Z,42.80
2019-03-25T03:15:11.520Z,42.35
2019-03-25T03:15:46.013Z,41.50
2019-03-25T03:16:20.513Z,41.63
2019-03-25T03:16:55.026Z,41.28
2019-03-25T03:17:29.519Z,40.80
2019-03-25T03:18:04.378Z,38.30
2019-03-25T03:18:38.882Z,40.25
2019-03-25T03:19:13.454Z,41.42
2019-03-25T03:19:47.987Z,40.73
2019-03-25T03:20:22.562Z,39.42
2019-03-25T03:20:57.084Z,40.38
2019-03-25T03:21:31.586Z,38.95
2019-03-25T03:22:06.172Z,38.70
2019-03-25T03:22:40.757Z,39.70
2019-03-25T03:23:15.361Z,40.83
2019-03-25T03:23:49.884Z,38.70
2019-03-25T03:24:24.452Z,40.15
2019-03-25T03:24:59.012Z,43.05
2019-03-25T03:25:33.645Z,39.85
2019-03-25T03:26:08.330Z,37.70
2019-03-25T03:26:42.975Z,38.63
2019-03-25T03:27:17.477Z,37.55
2019-03-25T03:27:52.041Z,39.35
2019-03-25T03:28:26.600Z,42.45
2019-03-25T03:29:01.120Z,41.88
2019-03-25T03:29:35.737Z,38.60
2019-03-25T03:30:10.806Z,44.30
2019-03-25T03:30:45.706Z,39.70
2019-03-25T03:31:20.234Z,39.88
2019-03-25T03:31:54.826Z,41.68
2019-03-25T03:32:29.378Z,40.73
2019-03-25T03:33:04.981Z,40.92
2019-03-25T03:33:39.480Z,40.73
2019-03-25T03:34:13.975Z,42.93
2019-03-25T03:34:48.497Z,41.08
2019-03-25T03:35:23.077Z,40.55
2019-03-25T03:35:57.629Z,44.48
2019-03-25T03:36:32.131Z,42.43
2019-03-25T03:37:06.696Z,41.98
2019-03-25T03:37:41.538Z,44.45
2019-03-25T03:38:16.044Z,43.00
2019-03-25T03:38:50.608Z,40.52
2019-03-25T03:39:25.148Z,41.60
2019-03-25T03:39:59.697Z,41.00
2019-03-25T03:40:34.444Z,42.13
2019-03-25T03:41:09.062Z,40.40
2019-03-25T03:41:43.618Z,41.88
2019-03-25T03:42:18.192Z,42.45
2019-03-25T03:42:53.683Z,41.30
2019-03-25T03:43:28.237Z,39.78
2019-03-25T03:44:02.826Z,41.88
2019-03-25T03:44:37.392Z,42.25
2019-03-25T03:45:12.699Z,38.70
2019-03-25T03:45:47.276Z,42.65
2019-03-25T03:46:21.787Z,40.35
2019-03-25T03:46:56.285Z,42.70
2019-03-25T03:47:30.788Z,41.85
2019-03-25T03:48:05.373Z,40.43
2019-03-25T03:48:39.916Z,42.27
2019-03-25T03:49:14.546Z,42.60
2019-03-25T03:49:49.058Z,41.10
2019-03-25T03:50:25.373Z,42.40
2019-03-25T03:51:00.957Z,41.25
2019-03-25T03:51:35.463Z,42.35
2019-03-25T03:52:09.955Z,41.15
2019-03-25T03:52:45.001Z,42.00
2019-03-25T03:53:19.642Z,44.18
2019-03-25T03:53:54.217Z,40.23
2019-03-25T03:54:28.779Z,40.00
2019-03-25T03:55:04.186Z,41.92
2019-03-25T03:55:39.852Z,42.73
2019-03-25T03:56:14.786Z,39.70
2019-03-25T03:56:51.032Z,38.70
2019-03-25T03:57:25.936Z,41.40
2019-03-25T03:58:00.514Z,43.83
2019-03-25T03:58:35.091Z,41.35
2019-03-25T03:59:09.692Z,41.20
2019-03-25T03:59:44.451Z,38.92
2019-03-25T04:00:28.169Z,40.70
2019-03-25T04:01:02.733Z,40.83
2019-03-25T04:01:37.249Z,37.85
2019-03-25T04:02:12.629Z,39.78
2019-03-25T04:02:47.217Z,41.50
2019-03-25T04:03:21.709Z,41.20
2019-03-25T04:03:56.211Z,41.60
2019-03-25T04:04:30.720Z,40.78
2019-03-25T04:05:05.225Z,41.65
2019-03-25T04:05:39.797Z,39.65
2019-03-25T04:06:14.949Z,42.93
2019-03-25T04:06:49.469Z,40.73
2019-03-25T04:07:23.967Z,39.35
2019-03-25T04:07:58.476Z,42.67
2019-03-25T04:08:33.027Z,38.65
2019-03-25T04:09:07.600Z,39.70
2019-03-25T04:09:42.602Z,38.73
2019-03-25T04:10:17.110Z,41.20
2019-03-25T04:10:51.700Z,40.73
2019-03-25T04:11:26.208Z,40.50
2019-03-25T04:12:00.776Z,40.05
2019-03-25T04:12:35.345Z,40.40
2019-03-25T04:13:09.847Z,39.95
2019-03-25T04:13:44.613Z,37.00
2019-03-25T04:14:19.131Z,39.67
2019-03-25T04:14:53.687Z,36.80
2019-03-25T04:15:30.254Z,39.63
2019-03-25T04:16:04.755Z,42.80
2019-03-25T04:16:39.258Z,40.85
2019-03-25T04:17:13.772Z,40.25
2019-03-25T04:17:48.313Z,38.88
2019-03-25T04:18:22.816Z,40.83
2019-03-25T04:18:57.316Z,39.05
2019-03-25T04:19:31.855Z,39.55
2019-03-25T04:20:07.922Z,38.60
2019-03-25T04:20:42.492Z,39.35
2019-03-25T04:21:17.004Z,38.83
2019-03-25T04:21:51.599Z,40.30
2019-03-25T04:22:26.173Z,41.23
2019-03-25T04:23:00.732Z,39.05
2019-03-25T04:23:35.309Z,39.98
2019-03-25T04:24:09.889Z,37.90
2019-03-25T04:24:44.471Z,40.23
2019-03-25T04:25:19.268Z,37.05
2019-03-25T04:25:53.839Z,38.35
2019-03-25T04:26:29.561Z,41.15
2019-03-25T04:27:04.980Z,36.28
2019-03-25T04:27:39.591Z,36.42
2019-03-25T04:28:14.158Z,39.30
2019-03-25T04:28:48.834Z,37.95
2019-03-25T04:29:23.461Z,38.35
2019-03-25T04:29:58.066Z,38.10
2019-03-25T04:30:32.626Z,36.83
2019-03-25T04:31:07.164Z,37.78
2019-03-25T04:31:41.678Z,39.75
2019-03-25T04:32:16.255Z,37.35
2019-03-25T04:32:50.765Z,37.83
2019-03-25T04:33:25.325Z,36.58
2019-03-25T04:33:59.836Z,37.55
2019-03-25T04:34:34.449Z,36.93
2019-03-25T04:35:09.222Z,36.73
2019-03-25T04:35:43.724Z,38.70
2019-03-25T04:36:18.226Z,37.42
2019-03-25T04:36:53.042Z,38.83
2019-03-25T04:37:27.620Z,38.75
2019-03-25T04:38:02.456Z,37.48
2019-03-25T04:38:37.051Z,39.45
2019-03-25T04:39:11.598Z,35.95
2019-03-25T04:39:46.092Z,38.02
2019-03-25T04:40:20.611Z,37.48
2019-03-25T04:40:55.215Z,40.10
2019-03-25T04:41:29.735Z,40.65
2019-03-25T04:42:04.303Z,38.38
2019-03-25T04:42:38.813Z,37.70
2019-03-25T04:43:13.398Z,38.67
2019-03-25T04:43:48.082Z,39.40
2019-03-25T04:44:22.685Z,40.17
2019-03-25T04:44:57.201Z,38.13
2019-03-25T04:45:31.774Z,36.83
2019-03-25T04:46:06.350Z,39.00
2019-03-25T04:46:40.875Z,39.42
2019-03-25T04:47:15.519Z,40.92
2019-03-25T04:47:50.032Z,38.50
2019-03-25T04:48:24.806Z,38.50
2019-03-25T04:48:59.300Z,37.30
2019-03-25T04:49:33.808Z,36.35
2019-03-25T04:50:08.365Z,38.90
2019-03-25T04:50:42.949Z,38.53
2019-03-25T04:51:17.813Z,36.95
2019-03-25T04:51:52.310Z,38.83
2019-03-25T04:52:26.853Z,37.15
2019-03-25T04:53:01.362Z,36.90
2019-03-25T04:53:36.265Z,39.38
2019-03-25T04:54:10.780Z,36.75
2019-03-25T04:54:45.355Z,40.50
2019-03-25T04:55:19.931Z,38.13
2019-03-25T04:55:54.448Z,38.28
2019-03-25T04:56:39.121Z,37.08
2019-03-25T04:57:05.213Z,38.80
2019-03-25T04:57:39.714Z,40.33
2019-03-25T04:58:14.349Z,41.35
2019-03-25T04:58:48.841Z,38.15
2019-03-25T04:59:23.348Z,39.90
2019-03-25T04:59:57.856Z,40.83
2019-03-25T05:00:34.466Z,38.92
2019-03-25T05:01:09.045Z,40.85
2019-03-25T05:01:43.624Z,37.93
2019-03-25T05:02:18.121Z,39.95
2019-03-25T05:02:52.621Z,38.83
2019-03-25T05:03:27.168Z,40.08
2019-03-25T05:04:01.717Z,39.03
2019-03-25T05:04:36.237Z,40.83
2019-03-25T05:05:10.905Z,38.48
2019-03-25T05:05:45.876Z,41.40
2019-03-25T05:06:20.755Z,40.63
2019-03-25T05:06:55.344Z,40.70
2019-03-25T05:07:30.552Z,39.78
2019-03-25T05:08:05.160Z,40.95
2019-03-25T05:08:39.655Z,41.73
2019-03-25T05:09:14.193Z,40.28
2019-03-25T05:09:48.703Z,43.25
2019-03-25T05:10:23.293Z,41.92
2019-03-25T05:10:57.797Z,40.98
2019-03-25T05:11:32.310Z,40.35
2019-03-25T05:12:07.133Z,41.02
2019-03-25T05:12:41.732Z,41.60
2019-03-25T05:13:16.261Z,43.42
2019-03-25T05:13:50.759Z,41.45
2019-03-25T05:14:25.256Z,41.73
2019-03-25T05:14:59.922Z,42.08
2019-03-25T05:15:34.424Z,41.30
2019-03-25T05:16:08.931Z,43.42
2019-03-25T05:16:43.515Z,43.92
2019-03-25T05:17:18.019Z,42.43
2019-03-25T05:17:52.545Z,43.13
2019-03-25T05:18:27.057Z,42.05
2019-03-25T05:19:01.658Z,43.90
2019-03-25T05:19:36.156Z,43.38
2019-03-25T05:20:10.917Z,41.80
2019-03-25T05:20:45.436Z,42.62
2019-03-25T05:21:19.948Z,41.85
2019-03-25T05:21:54.505Z,42.73
2019-03-25T05:22:29.028Z,43.52
2019-03-25T05:23:03.617Z,41.00
2019-03-25T05:23:38.210Z,41.00
2019-03-25T05:24:12.798Z,40.55
2019-03-25T05:24:47.372Z,42.80
2019-03-25T05:25:21.961Z,43.80
2019-03-25T05:25:56.493Z,42.48
2019-03-25T05:26:31.001Z,41.55
2019-03-25T05:27:05.573Z,44.23
2019-03-25T05:27:40.073Z,42.78
2019-03-25T05:28:14.591Z,40.28
2019-03-25T05:28:49.099Z,40.03
2019-03-25T05:29:23.670Z,41.90
2019-03-25T05:29:58.165Z,40.55
2019-03-25T05:30:32.704Z,42.25
2019-03-25T05:31:07.201Z,42.50
2019-03-25T05:31:41.731Z,45.25
2019-03-25T05:32:16.242Z,43.60
2019-03-25T05:32:50.743Z,41.83
2019-03-25T05:33:25.265Z,40.52
2019-03-25T05:33:59.903Z,44.40
2019-03-25T05:34:34.416Z,42.25
2019-03-25T05:35:09.049Z,46.53
2019-03-25T05:35:47.466Z,42.65
2019-03-25T05:36:21.994Z,39.98
2019-03-25T05:36:56.489Z,41.92
2019-03-25T05:37:30.998Z,42.70
2019-03-25T05:38:05.576Z,42.90
2019-03-25T05:38:40.147Z,43.25
2019-03-25T05:39:14.738Z,42.85
2019-03-25T05:39:49.342Z,41.63
2019-03-25T05:40:23.934Z,43.80
2019-03-25T05:40:58.445Z,43.10
2019-03-25T05:41:33.008Z,43.73
2019-03-25T05:42:07.555Z,40.60
2019-03-25T05:42:42.060Z,39.27
2019-03-25T05:43:16.552Z,40.03
2019-03-25T05:44:10.425Z,40.20
2019-03-25T05:44:44.949Z,41.35
2019-03-25T05:45:19.470Z,39.70
2019-03-25T05:45:53.963Z,38.38
2019-03-25T05:46:28.478Z,39.18
2019-03-25T05:47:03.002Z,40.30
2019-03-25T05:47:37.620Z,39.30
2019-03-25T05:48:12.217Z,41.00
2019-03-25T05:48:46.825Z,40.98
2019-03-25T05:49:21.343Z,39.53
2019-03-25T05:49:55.945Z,40.67
2019-03-25T05:50:31.410Z,42.73
2019-03-25T05:51:05.936Z,40.98
2019-03-25T05:51:40.645Z,40.78
2019-03-25T05:52:15.228Z,40.33
2019-03-25T05:52:49.769Z,39.40
2019-03-25T05:53:24.348Z,39.53
2019-03-25T05:53:58.917Z,41.73
2019-03-25T05:54:33.429Z,38.48
2019-03-25T05:55:08.206Z,38.55
2019-03-25T05:55:42.777Z,41.35
2019-03-25T05:56:17.375Z,38.95
2019-03-25T05:57:02.045Z,40.80
2019-03-25T05:57:28.086Z,38.78
2019-03-25T05:58:02.609Z,37.13
2019-03-25T05:58:37.381Z,38.20
2019-03-25T05:59:11.918Z,36.30
2019-03-25T05:59:46.442Z,37.33
2019-03-25T06:00:22.681Z,37.95
2019-03-25T06:00:58.628Z,37.58
2019-03-25T06:01:33.205Z,37.15
2019-03-25T06:02:07.715Z,36.40
2019-03-25T06:02:42.240Z,38.88
2019-03-25T06:03:16.831Z,36.42
2019-03-25T06:03:51.321Z,38.02
2019-03-25T06:04:25.825Z,34.83
2019-03-25T06:05:00.360Z,35.85
2019-03-25T06:05:34.969Z,36.00
2019-03-25T06:06:09.557Z,38.30
2019-03-25T06:06:44.095Z,35.35
2019-03-25T06:07:18.600Z,34.45
2019-03-25T06:07:53.180Z,32.98
2019-03-25T06:08:27.722Z,33.90
2019-03-25T06:09:02.302Z,36.17
2019-03-25T06:09:36.812Z,37.28
2019-03-25T06:10:12.260Z,34.50
2019-03-25T06:10:46.803Z,33.42
2019-03-25T06:11:21.426Z,32.58
2019-03-25T06:11:56.104Z,32.38
2019-03-25T06:12:30.629Z,34.18
2019-03-25T06:13:05.446Z,32.67
2019-03-25T06:13:39.957Z,33.53
2019-03-25T06:14:14.591Z,32.67
2019-03-25T06:14:49.181Z,34.98
2019-03-25T06:15:23.985Z,31.60
2019-03-25T06:15:58.746Z,33.92
2019-03-25T06:16:33.238Z,32.05
2019-03-25T06:17:07.812Z,32.42
2019-03-25T06:17:42.303Z,34.40
2019-03-25T06:18:16.809Z,32.65
2019-03-25T06:18:51.389Z,32.53
2019-03-25T06:19:25.893Z,32.40
2019-03-25T06:20:00.402Z,29.20
2019-03-25T06:20:34.926Z,31.35
2019-03-25T06:21:09.484Z,31.95
2019-03-25T06:21:44.026Z,32.00
2019-03-25T06:22:18.525Z,31.25
2019-03-25T06:22:53.293Z,31.33
2019-03-25T06:23:28.057Z,31.68
2019-03-25T06:24:02.629Z,28.17
2019-03-25T06:24:37.129Z,31.93
2019-03-25T06:25:12.041Z,30.60
2019-03-25T06:25:46.546Z,29.63
2019-03-25T06:26:21.038Z,30.77
2019-03-25T06:26:55.572Z,27.52
2019-03-25T06:27:30.140Z,30.80
2019-03-25T06:28:05.866Z,29.52
2019-03-25T06:28:40.473Z,26.30
2019-03-25T06:29:14.969Z,29.57
2019-03-25T06:29:49.479Z,30.23
2019-03-25T06:30:26.085Z,27.62
2019-03-25T06:31:00.656Z,27.32
2019-03-25T06:31:35.216Z,26.00
2019-03-25T06:32:10.209Z,25.77
2019-03-25T06:32:45.040Z,25.65
2019-03-25T06:33:19.639Z,26.12
2019-03-25T06:33:54.177Z,23.07
2019-03-25T06:34:28.759Z,27.60
2019-03-25T06:35:03.845Z,25.20
2019-03-25T06:35:38.430Z,24.12
2019-03-25T06:36:12.986Z,22.77
2019-03-25T06:36:47.490Z,22.73
2019-03-25T06:37:22.089Z,24.23
2019-03-25T06:37:56.599Z,25.62
2019-03-25T06:38:31.141Z,23.45
2019-03-25T06:39:06.825Z,24.70
2019-03-25T06:39:41.326Z,23.70
2019-03-25T06:40:15.897Z,24.82
2019-03-25T06:40:50.428Z,24.43
2019-03-25T06:41:24.940Z,22.65
2019-03-25T06:41:59.506Z,23.45
2019-03-25T06:42:34.021Z,23.18
2019-03-25T06:43:08.519Z,24.30
2019-03-25T06:43:43.084Z,23.98
2019-03-25T06:44:18.220Z,24.12
2019-03-25T06:44:52.789Z,22.52
2019-03-25T06:45:27.291Z,20.08
2019-03-25T06:46:01.781Z,21.82
2019-03-25T06:46:36.304Z,22.35
2019-03-25T06:47:10.884Z,22.98
2019-03-25T06:47:45.712Z,22.37
2019-03-25T06:48:20.220Z,22.05
2019-03-25T06:48:54.712Z,21.62
2019-03-25T06:49:29.787Z,21.93
2019-03-25T06:50:06.730Z,22.10
2019-03-25T06:50:41.317Z,20.45
2019-03-25T06:51:16.093Z,20.37
2019-03-25T06:51:50.706Z,20.10
2019-03-25T06:52:25.302Z,21.50
2019-03-25T06:52:59.873Z,20.85
2019-03-25T06:53:34.384Z,19.85
2019-03-25T06:54:08.887Z,20.92
2019-03-25T06:54:43.395Z,19.98
2019-03-25T06:55:18.048Z,23.05
2019-03-25T06:55:52.543Z,20.55
2019-03-25T06:56:27.050Z,21.48
2019-03-25T06:57:01.551Z,20.12
2019-03-25T06:57:38.495Z,21.97
2019-03-25T06:58:12.277Z,21.20
2019-03-25T06:58:46.842Z,21.35
2019-03-25T06:59:21.354Z,22.22
2019-03-25T06:59:57.413Z,19.85
2019-03-25T07:00:32.064Z,20.68
2019-03-25T07:01:06.583Z,21.20
2019-03-25T07:01:41.150Z,21.80
2019-03-25T07:02:15.712Z,21.05
2019-03-25T07:02:50.321Z,20.02
2019-03-25T07:03:29.851Z,19.80
2019-03-25T07:04:04.280Z,20.45
2019-03-25T07:04:38.797Z,19.67
2019-03-25T07:05:13.850Z,22.13
2019-03-25T07:05:48.500Z,21.20
2019-03-25T07:06:23.012Z,22.50
2019-03-25T07:06:57.628Z,21.05
2019-03-25T07:07:32.155Z,20.65
2019-03-25T07:08:06.754Z,20.92
2019-03-25T07:08:41.257Z,21.17
2019-03-25T07:09:15.838Z,19.45
2019-03-25T07:09:50.407Z,20.50
2019-03-25T07:10:33.048Z,18.50
2019-03-25T07:11:07.709Z,18.10
2019-03-25T07:11:42.404Z,20.90
2019-03-25T07:12:17.157Z,20.95
2019-03-25T07:12:51.648Z,19.48
2019-03-25T07:13:26.892Z,18.23
2019-03-25T07:14:01.380Z,18.40
2019-03-25T07:14:36.833Z,19.25
2019-03-25T07:15:11.579Z,16.50
2019-03-25T07:15:46.101Z,20.77
2019-03-25T07:16:20.595Z,17.10
2019-03-25T07:16:55.113Z,17.87
2019-03-25T07:17:29.641Z,18.00
2019-03-25T07:18:04.753Z,19.62
2019-03-25T07:18:39.330Z,16.30
2019-03-25T07:19:13.837Z,18.87
2019-03-25T07:19:48.348Z,15.93
2019-03-25T07:20:22.883Z,17.02
2019-03-25T07:20:57.397Z,17.30
2019-03-25T07:21:31.902Z,17.15
2019-03-25T07:22:06.417Z,17.77
2019-03-25T07:22:40.929Z,16.57
2019-03-25T07:23:15.441Z,18.15
2019-03-25T07:23:51.002Z,16.75
2019-03-25T07:24:25.584Z,17.42
2019-03-25T07:25:00.153Z,17.48
2019-03-25T07:25:34.970Z,17.45
2019-03-25T07:26:09.809Z,15.30
2019-03-25T07:26:44.312Z,16.40
2019-03-25T07:27:19.809Z,15.72